MET5915 - Boston to Philadelphia

Bombardier Dash-8-Q400
850AV
1 hr 15 mins
244 nm
Scheduled - Daily

Bid/PiRep Status

Bid was submitted on Dec 21 2016.

PiRep # 74425: Approved by Sean Doyle on December 22nd, 2016 17:37 UTC

Departure

Departing from
Boston (BOS)
Departure gate
Scheduled Departure
GMT 2300
Local 1800
METAR KBOS 222254Z 06007KT 10SM FEW080 FEW250 06/03 A2990 RMK AO2 SLP125 T00610028
TAF KBOS 222119Z 2221/2324 09007KT P6SM SCT250 FM230100 15004KT P6SM SCT250 FM230200 22004KT P6SM SCT250 FM230600 22004KT P6SM SCT010 BKN045 FM231400 21010KT P6SM FEW040 SCT250
  • No charts available

Arrival

Arriving at
Philadelphia (PHL)
Arrival gate
Scheduled Arrival
GMT 0015
Local 1915
METAR KPHL 222354Z 18005KT 10SM BKN250 12/06 A2992 RMK AO2 SLP131 T01170061 10144 20111 58002
TAF KPHL 222340Z 2300/2406 22006KT P6SM BKN250 FM230700 20003KT 5SM BR FEW005 SCT250 FM230900 20003KT 2SM BR OVC008 TEMPO 2310/2313 1/2SM FG OVC003 FM231400 21006KT 3SM BR OVC007 FM231600 22008KT P6SM BKN020 FM231800 23010G17KT P6SM BKN060 FM232000 22009KT P6SM SCT060 FM240300 20006KT 5SM BR BKN070

Route Map

Planning Resources

+LOGAN8 SSOXS BUZRD SEY J121 BRIGS JIIMS PHL
SSOXS3 SSOXS BUZRD SEY J121 BRIGS JIIMS2
SSOXS4.SSOXS BUZRD SEY J121 BRIGS.VCN8
BOS PUT HFD PACER SANTT LAURN RBV BRAND DAVYS EDJER
SSOXS3 SSOXS DCT BUZRD DCT SEY J121 BRIGS JIIMS2
Route:
OFP Layout:
Units:
Detailed Navlog:
ETOPS Planning:
Plan Stepclimbs:
Runway Analysis:
Include NOTAMS:
FIR NOTAMS:
Flight Maps:

Return Flights

MET5912
Bombardier Dash-8-Q400
1530 GMT
MET5914
Bombardier Dash-8-Q400
1935 GMT
MET5918
Bombardier Dash-8-Q400
1045 GMT

Popularity

Hub Current Bids PiReps this month Total PiReps
KMCI 0 0 0
KLAX 0 0 6
KBOS 0 0 1